Main page


Airports :

Bergamo, Italy

Orio al Serio International Airport

latitude: 45-40N, longitude: 009-42E, elevation: 238 m

Current weather observation

The report was made 16 minutes ago, at 06:50 UTC
Wind 3 kt from the South/Southeast, varying between Southeast and South
Temperature 3°C
Humidity 70%
Pressure 1017 hPa
Visibility: 8000 m
Scattered clouds at a height of 2000 ft
Scattered clouds at a height of 4000 ft

METAR: LIME 210650Z 16003KT 130V190 8000 SCT020 SCT040 03/M02 Q1017 NOSIG

Time: 08:06 (07:06 UTC)


The report was made 2 hours and 6 minutes ago, at 05:00 UTC
Forecast valid from 21 at 06 UTC to 22 at 06 UTC
Wind 5 kt from variable directions
Visibility 10 km or more
Scattered clouds at a height of 6000 ft

TAF: LIME 210500Z 2106/2206 VRB05KT 9999 SCT060

Weather observations and forecasts of more than 4000 airports (METAR and TAF reports).

The available stations are represented by yellow and red dots on the map.

Hover mouse over dot to see the name of the station.

Then click to see weather observations and forecasts.

To change the map : click on the green buttons with a black cross to zoom in, on the green button with a dash to zoom out, or on the green arrows for adjacent maps.